Pagrindinis puslapis
METAR-TAF:

METAR-TAF

Oro uostai :

Beirutas, Libanas

platuma: 33-49N, ilguma: 035-29E, Aukštis: 29 m

Dabartinis oras

Ataskaita buvo paskelbta 18 minutes, ne 00:00 UTC
Vėjas 14 kt iš Vakarų/Pietvakarių
Temperatūra 26°C
Drėgmė 54%
Slėgis 1008 hPa
Matomumas: 8000 m
Mažai debesys ne aukštis 3500 ft

METAR: OLBA 240000Z 25014KT 8000 FEW035 26/16 Q1008 NOSIG

Laikas: 03:18 (00:18 UTC)

Prognozė

Ataskaita buvo paskelbta 2 valandos ir 18 minutes, ne 22:00 UTC
Prognozė galioja nuo 24 metu 00 UTC su 25 metu 06 UTC
Vėjas 15 kt iš Vakarų/Pietvakarių
Matomumas: 8000 m
Išsisklaidę debesys ne aukštis 3000 ft
Tikimybė 40% :
Laikinai
nuo 24 metu 00 UTC su 24 metu 12 UTC
Su prošvaistėmis ne aukštis 2800 ft
lietus
Tapsmas
nuo 24 metu 16 UTC su 24 metu 18 UTC
Vėjas 6 kt iš Šiaurės/Šiaurės Vakarų
Matomumas 10 km arba daugiau
Mažai debesys ne aukštis 2600 ft

TAF: OLBA 232200Z 2400/2506 25015KT 8000 SCT030 PROB40 TEMPO 2400/2412 -RA BKN028 BECMG 2416/2418 33006KT 9999 FEW026

Orai ataskaitas ir orų prognozės (METAR, TAF).

turimą stotys yra geltonos ir raudonos taškus žemėlapyje.

Perkelti pele per norėdami pamatyti stoties vardą.

Tada spustelėkite, norėdami matyti oro stebėjimo ir prognozės.

Norėdami pakeisti žemėlapį: spustelėkite ant žalios mygtukų su juodo kryžiaus žemyn,; žalią mygtuką su brūkšneliu, jei norite nutolinti; arba žalių rodyklių gretimoms žemėlapius.


METAR-TAF: